Detall de PIREP

Printer-friendly versionPDF version

[2015/07/09 09:05:00]
Flight IATA:CT2106
Pilot Number:042
Company ICAO:CAT
Aircraft Type:B738/F
PAX:48
Departing Airport: LEVC
Destination Airport: LEMD
Alternate Airport:LEVD
Online: VATSIM
Route:ASTRO L150 VILLA
Flight Level:F190
No Slew and time accel
No pause
Crash detect
Detect pilot in Cockpit between each 30 and 45 minutes
09:05 Zero fuel Weight: 121806 Lbs, Fuel Weight: 46040 Lbs
09:05 VATSIM:LEVC 090830Z 05003KT 010V090 9999 FEW020 BKN032 28/22 Q1018 NOSIG
09:05 VATSIM:LEMD 090830Z VRB02KT CAVOK 27/09 Q1019 NOSIG
09:10 Parking Brakes off
09:15 Take-off
09:15 Take off Weight: 167122 Lbs
09:15 Wind: 044º @ 003 Knots Heading: 296º
09:15 POS N39º 29´ 33´´ W000º 29´ 26´´
09:15 Flaps:4 at 165 Knots
09:15 Gear Up: 165 Knots
09:16 Flaps:3 at 159 Knots
09:16 Flaps:2 at 157 Knots
09:18 Flaps:1 at 184 Knots
09:20 Flaps:0 at 233 Knots
09:25 TOC
09:25 Fuel Weight: 42577 Lb
09:30 Wind:323º@009 Knots Heading: 324º Ground Speed: 408 Knots Altitude 19032 ft
09:36 TOD
09:36 Fuel Weight: 41388 Lb
09:44 Flaps:1 at 244 Knots
09:45 Wind:263º@011 Knots Heading: 268º Ground Speed: 261 Knots Altitude 8914 ft
09:45 Flaps:2 at 221 Knots
09:46 Flaps:3 at 196 Knots
09:48 Flaps:4 at 183 Knots
09:50 Gear Down: 180 Knots
09:50 Flaps:5 at 178 Knots
09:50 Flaps:6 at 175 Knots
09:50 Flaps:7 at 169 Knots
09:51 Flaps:8 at 158 Knots
09:52 Flaps:7 at 159 Knots
09:53 Flaps:8 at 157 Knots
09:53 TouchDown:Rate -193 ft/min Speed: 140 Knots
09:54 VATSIM:LEMD 090930Z 02002KT CAVOK 30/11 Q1019 NOSIG
09:54 Land
09:54 Wind:021º@002 Knots
09:54 Heading: 322º
09:54 Flight Duration: 00:39
09:54 Landing Weight: 162192 Lbs
09:54 POS N40º 29´ 13´´ W003º 32´ 59´´
09:57 Parking brakes on
09:57 Block to Block Duration: 00:47
09:57 Final Fuel: 40132Lbls
09:57 Spent Fuel: 5908 Lbls
09:57 Flight Length: 198 NM
09:57 TOD Land Length: 75 NM

Exportar CSV

Powered by Drupal - Modified by Danger4k